Time;durP1;ratioP1;P1;durP2;ratioP2;P2;SDS_P1;SDS_P2;PMS_P1;PMS_P2;Temp;Humidity;BMP_temperature;BMP_pressure;BME280_temperature;BME280_humidity;BME280_pressure;Samples;Min_cycle;Max_cycle;Signal;HPM_P1;HPM_P2
2021/11/14 00:01:20;;;;;;;38.77;26.20;;;7.30;99.90;;;;;;4989310;28;20431;-73
2021/11/14 00:03:46;;;;;;;33.83;26.30;;;7.40;99.90;;;;;;4975137;28;20222;-74
2021/11/14 00:06:12;;;;;;;40.83;27.80;;;7.30;99.90;;;;;;4986168;28;20824;-74
2021/11/14 00:08:38;;;;;;;40.90;28.27;;;7.30;99.90;;;;;;4991706;28;20458;-74
2021/11/14 00:11:10;;;;;;;40.33;27.90;;;7.30;99.90;;;;;;4974954;28;20214;-73
2021/11/14 00:13:38;;;;;;;37.00;28.07;;;7.30;99.90;;;;;;4972985;28;20477;-74
2021/11/14 00:16:04;;;;;;;37.30;26.93;;;7.30;99.90;;;;;;4961883;28;20457;-74
2021/11/14 00:18:30;;;;;;;35.13;26.43;;;7.30;99.90;;;;;;4973531;28;20480;-74
2021/11/14 00:20:55;;;;;;;33.20;26.07;;;7.30;99.90;;;;;;4991700;28;20455;-74
2021/11/14 00:23:21;;;;;;;36.77;26.40;;;7.30;99.90;;;;;;4974700;28;20215;-73
2021/11/14 00:25:47;;;;;;;34.57;25.67;;;7.40;99.90;;;;;;4965977;28;20303;-74
2021/11/14 00:28:12;;;;;;;38.90;27.70;;;7.40;99.90;;;;;;4969181;28;20224;-73
2021/11/14 00:30:39;;;;;;;39.40;27.23;;;7.40;99.90;;;;;;4984187;28;20214;-72
2021/11/14 00:33:06;;;;;;;37.97;26.30;;;7.40;99.90;;;;;;4965870;28;20238;-74
2021/11/14 00:35:32;;;;;;;34.50;26.50;;;7.40;99.90;;;;;;4993136;28;20450;-73
2021/11/14 00:37:58;;;;;;;40.97;27.43;;;7.40;99.90;;;;;;4987352;28;20463;-74
2021/11/14 00:40:27;;;;;;;39.20;27.20;;;7.40;99.90;;;;;;4977532;28;20408;-73
2021/11/14 00:42:54;;;;;;;33.80;25.23;;;7.40;99.90;;;;;;4977534;28;20833;-73
2021/11/14 00:45:20;;;;;;;38.97;24.80;;;7.40;99.90;;;;;;4978508;28;20830;-73
2021/11/14 00:47:46;;;;;;;34.80;24.77;;;7.40;99.90;;;;;;4978949;28;20453;-74
2021/11/14 00:50:12;;;;;;;33.20;26.10;;;7.40;99.90;;;;;;4978979;28;20559;-74
2021/11/14 00:52:40;;;;;;;32.67;23.43;;;7.50;99.90;;;;;;4978547;28;20217;-73
2021/11/14 00:55:07;;;;;;;35.43;23.90;;;7.50;99.90;;;;;;4978967;28;20414;-74
2021/11/14 00:57:33;;;;;;;34.87;24.30;;;7.40;99.90;;;;;;4977452;28;20426;-73
2021/11/14 00:59:58;;;;;;;33.33;23.70;;;7.50;99.90;;;;;;4978752;28;20459;-74
2021/11/14 05:31:40;;;;;;;31.57;20.67;;;7.80;99.90;;;;;;5578903;23;20501;-75
2021/11/14 05:34:06;;;;;;;34.67;20.23;;;7.90;99.90;;;;;;4979761;28;20942;-75
2021/11/14 05:36:32;;;;;;;28.43;19.90;;;7.90;99.90;;;;;;4965963;28;20190;-75
2021/11/14 05:38:57;;;;;;;30.20;20.20;;;7.90;99.90;;;;;;4974345;28;20219;-73
2021/11/14 05:41:23;;;;;;;34.77;21.87;;;7.90;99.90;;;;;;4974051;28;20580;-73
2021/11/14 05:43:48;;;;;;;27.90;20.00;;;7.90;99.90;;;;;;4972588;28;20393;-73
2021/11/14 05:46:14;;;;;;;29.00;20.17;;;7.90;99.90;;;;;;4974192;28;20180;-73
2021/11/14 05:48:40;;;;;;;31.13;19.80;;;7.90;99.90;;;;;;4974237;28;20210;-72
2021/11/14 05:51:05;;;;;;;28.53;18.90;;;7.90;99.90;;;;;;4973749;28;20188;-73
2021/11/14 05:53:31;;;;;;;27.00;19.03;;;8.00;99.90;;;;;;4973442;28;20183;-73
2021/11/14 05:55:57;;;;;;;29.47;19.33;;;8.00;99.90;;;;;;4974644;28;20542;-73
2021/11/14 06:06:28;;;;;;;25.27;18.40;;;7.90;99.90;;;;;;4973924;28;20424;-73
2021/11/14 06:08:54;;;;;;;29.90;19.57;;;7.90;99.90;;;;;;4974170;28;20465;-74
2021/11/14 06:11:23;;;;;;;35.83;20.90;;;7.90;99.90;;;;;;4973654;28;20206;-71
2021/11/14 06:13:49;;;;;;;33.80;20.37;;;7.90;99.90;;;;;;4973573;28;20656;-73
2021/11/14 06:16:14;;;;;;;30.90;20.00;;;7.90;99.90;;;;;;4973530;28;20422;-73
2021/11/14 06:18:40;;;;;;;35.10;19.87;;;7.90;99.90;;;;;;4973840;28;20178;-73
2021/11/14 06:21:05;;;;;;;28.67;20.10;;;7.90;99.90;;;;;;4973933;28;20654;-73
2021/11/14 06:23:31;;;;;;;27.83;19.03;;;7.90;99.90;;;;;;4973195;28;20269;-74
2021/11/14 06:25:57;;;;;;;31.80;18.93;;;7.90;99.90;;;;;;4973771;28;20253;-74
2021/11/14 06:28:22;;;;;;;28.27;19.70;;;7.90;99.90;;;;;;4973047;28;20205;-74
2021/11/14 06:30:48;;;;;;;28.20;19.80;;;7.90;99.90;;;;;;4974618;28;20206;-73
2021/11/14 06:33:13;;;;;;;28.20;18.20;;;7.90;99.90;;;;;;4974153;28;20177;-73
2021/11/14 06:35:39;;;;;;;28.27;18.20;;;7.90;99.90;;;;;;4975074;28;20249;-71
2021/11/14 06:38:05;;;;;;;30.37;19.80;;;7.90;99.90;;;;;;4975011;28;20224;-73
2021/11/14 06:40:31;;;;;;;28.23;20.27;;;7.90;99.90;;;;;;4974969;28;20214;-72
2021/11/14 06:42:57;;;;;;;26.50;18.40;;;7.90;99.90;;;;;;4974571;28;20417;-73
2021/11/14 06:45:22;;;;;;;32.50;19.67;;;7.90;99.90;;;;;;4974480;28;20185;-72
2021/11/14 06:47:48;;;;;;;32.93;20.07;;;7.90;99.90;;;;;;4974564;28;20193;-73
2021/11/14 06:50:15;;;;;;;27.60;17.53;;;7.90;99.90;;;;;;4974802;28;20251;-73
2021/11/14 06:52:43;;;;;;;30.70;19.03;;;7.90;99.90;;;;;;4974222;28;20198;-72
2021/11/14 06:55:11;;;;;;;31.53;20.10;;;7.90;99.90;;;;;;4974766;28;20508;-73
2021/11/14 06:57:37;;;;;;;31.00;20.13;;;7.90;99.90;;;;;;4974675;28;20791;-73
2021/11/14 07:00:13;;;;;;;31.77;19.77;;;7.90;99.90;;;;;;4974493;28;20408;-72
2021/11/14 07:02:40;;;;;;;29.30;19.67;;;7.80;99.90;;;;;;4972433;28;20448;-70
2021/11/14 07:05:06;;;;;;;35.13;21.00;;;7.80;99.90;;;;;;4974401;28;20907;-72
2021/11/14 07:07:32;;;;;;;28.93;18.80;;;7.80;99.90;;;;;;4974356;28;20478;-73
2021/11/14 07:09:57;;;;;;;26.90;19.13;;;7.90;99.90;;;;;;4974145;28;20465;-73
2021/11/14 07:12:24;;;;;;;27.30;17.70;;;7.90;99.90;;;;;;4972548;28;20508;-73
2021/11/14 07:14:51;;;;;;;27.97;18.17;;;7.90;99.90;;;;;;4973527;28;20183;-74
2021/11/14 07:17:16;;;;;;;26.97;19.27;;;7.90;99.90;;;;;;4973531;28;20449;-74
2021/11/14 07:19:43;;;;;;;27.93;18.07;;;7.90;99.90;;;;;;4973133;28;20462;-72
2021/11/14 07:22:08;;;;;;;28.40;18.43;;;7.90;99.90;;;;;;4973179;28;20206;-72
2021/11/14 07:24:34;;;;;;;25.80;18.03;;;7.90;99.90;;;;;;4973975;28;20426;-73
2021/11/14 07:27:00;;;;;;;24.67;17.03;;;8.00;99.90;;;;;;4973720;28;20202;-73
2021/11/14 07:29:25;;;;;;;22.70;17.37;;;8.00;99.90;;;;;;4967187;28;20230;-73
2021/11/14 07:31:51;;;;;;;27.67;17.37;;;8.00;99.90;;;;;;4953951;28;20251;-73
2021/11/14 07:34:16;;;;;;;24.33;18.13;;;8.00;99.90;;;;;;4990788;28;20260;-72
2021/11/14 07:36:42;;;;;;;20.80;15.90;;;8.10;99.90;;;;;;4987577;28;20217;-73
2021/11/14 07:39:08;;;;;;;21.93;17.00;;;8.20;99.90;;;;;;4992467;28;20214;-72
2021/11/14 07:41:33;;;;;;;24.00;16.87;;;8.20;99.90;;;;;;4980603;28;20745;-73
2021/11/14 07:43:59;;;;;;;25.57;17.30;;;8.30;99.90;;;;;;4991347;28;20291;-72
2021/11/14 07:46:26;;;;;;;25.97;17.57;;;8.40;99.90;;;;;;4985599;28;20203;-72
2021/11/14 07:48:52;;;;;;;25.70;18.70;;;8.40;99.90;;;;;;4973180;28;20210;-73
2021/11/14 07:51:18;;;;;;;25.07;18.10;;;8.40;99.90;;;;;;4968582;28;20995;-71
2021/11/14 07:53:44;;;;;;;30.40;20.57;;;8.50;99.90;;;;;;4977971;28;20511;-72
2021/11/14 07:56:09;;;;;;;32.30;22.00;;;8.40;99.90;;;;;;4973007;28;20195;-73
2021/11/14 07:58:35;;;;;;;25.83;19.60;;;8.50;99.90;;;;;;4973466;28;20459;-72
2021/11/14 08:01:00;;;;;;;26.93;18.80;;;8.50;99.90;;;;;;4985090;28;20237;-73
2021/11/14 08:03:31;;;;;;;28.13;19.70;;;8.60;99.90;;;;;;4975090;28;20186;-74
2021/11/14 08:05:57;;;;;;;26.40;19.70;;;8.60;99.90;;;;;;4970567;28;20188;-74
2021/11/14 08:08:22;;;;;;;30.63;20.57;;;8.60;99.90;;;;;;4972231;28;20546;-71
2021/11/14 08:10:48;;;;;;;33.33;21.30;;;8.60;99.90;;;;;;4972247;28;20197;-73
2021/11/14 08:13:13;;;;;;;28.13;19.93;;;8.80;99.90;;;;;;4970976;28;20178;-73
2021/11/14 08:15:39;;;;;;;29.20;20.53;;;8.80;99.90;;;;;;4972501;28;20177;-72
2021/11/14 08:18:06;;;;;;;29.73;18.70;;;8.90;99.90;;;;;;4972018;28;20270;-73
2021/11/14 08:20:33;;;;;;;28.40;19.00;;;9.00;99.90;;;;;;4971849;28;20513;-73
2021/11/14 08:23:00;;;;;;;34.57;25.00;;;9.10;99.90;;;;;;4971156;28;20424;-72
2021/11/14 08:25:27;;;;;;;26.83;21.37;;;9.10;99.90;;;;;;4972121;28;20414;-74
2021/11/14 08:27:53;;;;;;;26.73;21.10;;;9.00;99.90;;;;;;4972449;28;20419;-73
2021/11/14 08:30:20;;;;;;;28.70;22.00;;;9.00;99.90;;;;;;4972121;28;20416;-71
2021/11/14 08:32:49;;;;;;;35.33;24.33;;;9.00;99.90;;;;;;4970281;28;20982;-72
2021/11/14 08:35:16;;;;;;;32.80;22.60;;;9.00;99.90;;;;;;4980672;28;20412;-72
2021/11/14 08:37:42;;;;;;;29.60;20.93;;;8.90;99.90;;;;;;4972038;28;20956;-72
2021/11/14 08:40:09;;;;;;;32.87;21.20;;;8.90;99.90;;;;;;4976220;28;20574;-73
2021/11/14 08:42:36;;;;;;;29.40;20.53;;;9.00;99.90;;;;;;4990371;28;20446;-73
2021/11/14 08:45:04;;;;;;;25.00;18.37;;;9.00;99.90;;;;;;4970859;28;20421;-73
2021/11/14 08:47:29;;;;;;;31.00;19.63;;;9.00;99.90;;;;;;4970924;28;20846;-72
2021/11/14 08:49:55;;;;;;;27.50;19.27;;;9.00;99.90;;;;;;4975706;28;20473;-73
2021/11/14 08:52:20;;;;;;;26.23;19.90;;;9.00;99.90;;;;;;4976999;28;20195;-71
2021/11/14 08:54:46;;;;;;;28.50;20.03;;;9.00;99.90;;;;;;4991474;28;20729;-73
2021/11/14 08:57:17;;;;;;;27.73;19.00;;;9.00;99.90;;;;;;4995222;28;20169;-72
2021/11/14 08:59:42;;;;;;;25.63;17.60;;;9.20;99.90;;;;;;4995500;28;20634;-70
2021/11/14 09:02:09;;;;;;;24.93;17.87;;;9.30;99.90;;;;;;4994935;28;20434;-74
2021/11/14 09:04:34;;;;;;;22.77;16.47;;;9.50;99.90;;;;;;4994932;28;20615;-74
2021/11/14 09:07:00;;;;;;;23.40;15.80;;;9.50;99.90;;;;;;4990944;28;20428;-73
2021/11/14 09:09:26;;;;;;;21.37;17.33;;;9.70;99.90;;;;;;4982314;28;20869;-71
2021/11/14 09:11:52;;;;;;;22.90;16.57;;;9.70;99.90;;;;;;4994971;28;20253;-72
2021/11/14 09:14:19;;;;;;;23.60;15.70;;;9.80;99.90;;;;;;4994708;28;20906;-72
2021/11/14 09:16:45;;;;;;;21.43;16.00;;;9.80;99.90;;;;;;4993111;28;20178;-72
2021/11/14 09:19:11;;;;;;;23.10;16.37;;;9.80;99.90;;;;;;4995554;28;20543;-73
2021/11/14 09:21:37;;;;;;;19.70;15.67;;;9.90;99.90;;;;;;4995647;28;20909;-73
2021/11/14 09:24:04;;;;;;;19.80;14.40;;;9.80;99.90;;;;;;4994955;28;20188;-70
2021/11/14 09:26:30;;;;;;;22.13;16.53;;;9.80;99.90;;;;;;4995406;28;20919;-72
2021/11/14 09:28:55;;;;;;;20.20;15.27;;;9.80;99.90;;;;;;4995141;28;20465;-72
2021/11/14 09:31:21;;;;;;;21.23;16.30;;;9.90;99.90;;;;;;4995008;28;20218;-72
2021/11/14 09:33:46;;;;;;;22.23;16.50;;;9.90;99.90;;;;;;4994691;28;20207;-73
2021/11/14 09:36:12;;;;;;;22.63;15.90;;;9.90;99.90;;;;;;4995081;28;20182;-73
2021/11/14 09:38:38;;;;;;;18.93;15.50;;;9.90;99.90;;;;;;4994706;28;20644;-73
2021/11/14 09:41:06;;;;;;;21.80;16.27;;;9.90;99.90;;;;;;4995220;28;20666;-73
2021/11/14 09:43:32;;;;;;;22.73;15.67;;;9.90;99.90;;;;;;4994620;28;20189;-73
2021/11/14 09:45:58;;;;;;;23.43;17.40;;;10.00;99.90;;;;;;4995047;28;20967;-72
2021/11/14 09:48:24;;;;;;;23.00;16.10;;;10.00;99.90;;;;;;4994215;28;20193;-71
2021/11/14 09:50:52;;;;;;;22.67;16.93;;;9.90;99.90;;;;;;4994437;28;20434;-73
2021/11/14 09:53:18;;;;;;;24.97;16.67;;;9.70;99.90;;;;;;4993958;28;20173;-73
2021/11/14 09:55:44;;;;;;;25.70;17.77;;;9.70;99.90;;;;;;4994703;28;20400;-73
2021/11/14 09:58:09;;;;;;;21.73;16.17;;;9.70;99.90;;;;;;4994316;28;21065;-72
2021/11/14 10:00:38;;;;;;;23.47;15.80;;;9.70;99.90;;;;;;4994244;28;20582;-73
2021/11/14 10:03:05;;;;;;;23.73;17.37;;;9.70;99.90;;;;;;4993613;28;20174;-72
2021/11/14 10:05:32;;;;;;;25.63;16.30;;;9.70;99.90;;;;;;4993880;28;20504;-73
2021/11/14 10:08:03;;;;;;;22.70;14.87;;;9.60;99.90;;;;;;4992446;28;20484;-72
2021/11/14 10:10:31;;;;;;;23.13;16.97;;;9.60;99.90;;;;;;4994053;28;20465;-72
2021/11/14 10:13:09;;;;;;;23.07;16.40;;;9.60;99.90;;;;;;4993625;28;20504;-73
2021/11/14 10:15:34;;;;;;;22.90;16.17;;;9.70;99.90;;;;;;4993916;28;20411;-73
2021/11/14 10:18:03;;;;;;;27.20;17.53;;;9.80;99.90;;;;;;4994426;28;20837;-74
2021/11/14 10:20:32;;;;;;;26.70;16.37;;;9.90;99.90;;;;;;4994307;28;20198;-71
2021/11/14 10:23:03;;;;;;;25.50;17.13;;;9.90;99.90;;;;;;4993408;28;20420;-74
2021/11/14 10:25:29;;;;;;;24.03;16.47;;;10.20;99.90;;;;;;5009012;28;20437;-73
2021/11/14 10:27:58;;;;;;;22.23;15.43;;;10.30;99.90;;;;;;4994121;28;20750;-73
2021/11/14 10:30:27;;;;;;;23.37;14.03;;;10.30;99.90;;;;;;4994411;28;20397;-73
2021/11/14 10:32:58;;;;;;;23.17;15.50;;;10.40;99.90;;;;;;4993658;28;20445;-73
2021/11/14 10:35:27;;;;;;;22.00;14.30;;;10.30;99.90;;;;;;4994270;28;20393;-72
2021/11/14 10:37:55;;;;;;;29.83;18.13;;;10.30;99.90;;;;;;4993885;28;20412;-73
2021/11/14 10:40:26;;;;;;;26.87;16.53;;;10.30;99.90;;;;;;4993736;28;20417;-72
2021/11/14 10:42:55;;;;;;;18.67;14.47;;;10.30;99.90;;;;;;4993193;28;20415;-73
2021/11/14 10:45:21;;;;;;;23.23;15.50;;;10.30;99.90;;;;;;4993572;28;20436;-73
2021/11/14 10:47:59;;;;;;;25.23;16.20;;;10.20;99.90;;;;;;4993726;28;20423;-72
2021/11/14 10:50:31;;;;;;;22.90;14.97;;;10.20;99.90;;;;;;4993872;28;20420;-72
2021/11/14 10:52:59;;;;;;;27.13;14.87;;;10.30;99.90;;;;;;4993507;28;20480;-73
2021/11/14 10:55:28;;;;;;;23.33;14.27;;;10.30;99.90;;;;;;4994024;28;20407;-72
2021/11/14 10:57:54;;;;;;;30.00;17.13;;;10.40;99.90;;;;;;4993509;28;20503;-74
2021/11/14 11:00:21;;;;;;;27.37;16.67;;;10.30;99.90;;;;;;4993273;28;20499;-72
2021/11/14 11:02:47;;;;;;;22.20;15.10;;;10.40;99.90;;;;;;4992648;28;20202;-73
2021/11/14 11:05:19;;;;;;;20.93;15.40;;;10.40;99.90;;;;;;4994246;28;20492;-73
2021/11/14 11:08:00;;;;;;;27.07;16.47;;;10.40;99.90;;;;;;4993792;28;20173;-72
2021/11/14 11:10:33;;;;;;;27.30;16.17;;;10.60;99.90;;;;;;4993820;28;20404;-72
2021/11/14 11:13:08;;;;;;;23.30;15.50;;;10.70;99.90;;;;;;4993017;28;20416;-73
2021/11/14 11:15:46;;;;;;;20.90;15.43;;;10.60;99.90;;;;;;4993739;28;20397;-73
2021/11/14 11:18:18;;;;;;;20.93;15.20;;;10.60;99.90;;;;;;4993166;28;20417;-71
2021/11/14 11:20:48;;;;;;;22.50;15.17;;;10.60;99.90;;;;;;4992990;28;20839;-71
2021/11/14 11:23:16;;;;;;;23.07;15.00;;;10.50;99.90;;;;;;4993172;28;20417;-74
2021/11/14 11:25:46;;;;;;;23.87;15.37;;;10.40;99.90;;;;;;4993769;28;20414;-73
2021/11/14 11:28:25;;;;;;;20.30;14.13;;;10.40;99.90;;;;;;4993277;28;20461;-73
2021/11/14 11:30:55;;;;;;;23.67;15.27;;;10.40;99.90;;;;;;4988927;28;20445;-72
2021/11/14 11:33:21;;;;;;;23.60;15.70;;;10.40;99.90;;;;;;4973448;28;20918;-72
2021/11/14 11:35:52;;;;;;;24.03;15.33;;;10.40;99.90;;;;;;4973364;28;20418;-73
2021/11/14 11:38:20;;;;;;;20.43;15.63;;;10.40;99.90;;;;;;4973701;28;20937;-74
2021/11/14 11:40:46;;;;;;;23.80;15.63;;;10.40;99.90;;;;;;4973645;28;20392;-73
2021/11/14 11:43:12;;;;;;;23.93;15.87;;;10.40;99.90;;;;;;4973275;28;20419;-73
2021/11/14 11:45:41;;;;;;;24.13;15.93;;;10.30;99.90;;;;;;4973810;28;20580;-72
2021/11/14 11:48:26;;;;;;;28.80;17.63;;;10.30;99.90;;;;;;4973269;28;20183;-72
2021/11/14 11:51:04;;;;;;;26.00;16.27;;;10.30;99.90;;;;;;4954836;28;20569;-73
2021/11/14 11:53:30;;;;;;;28.30;18.13;;;10.30;99.90;;;;;;4969189;28;20445;-73
2021/11/14 11:56:07;;;;;;;28.23;18.20;;;10.20;99.90;;;;;;4991876;28;20469;-73
2021/11/14 11:58:53;;;;;;;24.67;16.90;;;10.20;99.90;;;;;;4978822;28;20213;-72
2021/11/14 12:01:28;;;;;;;26.83;18.23;;;10.20;99.90;;;;;;4972400;28;20465;-71
2021/11/14 12:03:55;;;;;;;25.07;16.40;;;10.30;99.90;;;;;;4988285;28;20448;-72
2021/11/14 12:06:27;;;;;;;25.40;17.00;;;10.40;99.90;;;;;;4979968;28;20976;-74
2021/11/14 12:08:57;;;;;;;28.13;18.20;;;10.40;99.90;;;;;;4970102;28;20473;-73
2021/11/14 12:11:29;;;;;;;29.73;17.63;;;10.40;99.90;;;;;;4992058;28;20503;-73
2021/11/14 12:13:55;;;;;;;35.00;18.20;;;10.50;99.90;;;;;;4981121;28;20542;-73
2021/11/14 12:16:26;;;;;;;26.77;16.03;;;10.60;99.90;;;;;;4971803;28;20552;-71
2021/11/14 12:18:52;;;;;;;28.27;17.73;;;10.70;99.90;;;;;;4972065;28;20214;-73
2021/11/14 12:21:20;;;;;;;27.07;16.60;;;10.80;99.90;;;;;;4972390;28;20455;-73
2021/11/14 12:23:53;;;;;;;27.23;17.07;;;11.00;99.90;;;;;;4982797;28;20214;-72
2021/11/14 12:26:28;;;;;;;27.57;16.53;;;11.10;99.90;;;;;;4986976;28;20467;-72
2021/11/14 12:28:57;;;;;;;25.97;15.90;;;11.10;99.90;;;;;;4972852;28;20829;-72
2021/11/14 12:31:28;;;;;;;25.80;16.63;;;11.10;99.90;;;;;;4986906;28;20473;-72
2021/11/14 12:33:59;;;;;;;21.40;14.93;;;11.10;99.90;;;;;;4991371;28;20517;-72
2021/11/14 12:36:40;;;;;;;22.07;15.10;;;11.10;99.90;;;;;;4985902;28;20551;-71
2021/11/14 12:39:30;;;;;;;24.57;14.93;;;11.00;99.90;;;;;;4991663;28;20453;-71
2021/11/14 12:41:59;;;;;;;25.37;14.60;;;11.00;99.90;;;;;;4979107;28;20467;-74
2021/11/14 12:44:48;;;;;;;22.30;13.33;;;11.10;99.90;;;;;;4990581;28;20452;-71
2021/11/14 12:47:29;;;;;;;24.80;14.30;;;11.10;99.90;;;;;;4975041;28;20882;-72
2021/11/14 12:50:14;;;;;;;26.67;16.07;;;11.10;99.90;;;;;;4973935;28;20473;-73
2021/11/14 12:52:49;;;;;;;25.17;15.43;;;11.00;99.90;;;;;;4978386;28;20466;-72
2021/11/14 12:55:23;;;;;;;30.67;16.00;;;11.00;99.90;;;;;;4977331;28;20833;-71
2021/11/14 12:57:56;;;;;;;24.77;16.10;;;11.00;99.90;;;;;;4974365;28;20541;-72
2021/11/14 13:00:40;;;;;;;31.00;16.63;;;10.90;99.90;;;;;;4991284;28;20450;-73
2021/11/14 13:03:23;;;;;;;34.17;16.70;;;10.90;99.90;;;;;;4960912;28;20439;-71
2021/11/14 13:05:50;;;;;;;30.13;17.07;;;10.80;99.90;;;;;;4990078;28;20467;-73
2021/11/14 13:08:21;;;;;;;29.17;16.67;;;10.70;99.90;;;;;;4976410;28;20537;-73
2021/11/14 13:10:51;;;;;;;29.20;17.40;;;10.70;99.90;;;;;;4970957;28;20463;-72
2021/11/14 13:13:39;;;;;;;26.17;16.37;;;10.70;99.90;;;;;;4982696;28;20924;-73
2021/11/14 13:16:25;;;;;;;29.03;17.70;;;10.70;99.90;;;;;;4983117;28;20477;-71
2021/11/14 13:18:52;;;;;;;25.60;16.27;;;10.60;99.90;;;;;;4974495;28;20825;-73
2021/11/14 13:21:20;;;;;;;29.70;16.57;;;10.60;99.90;;;;;;4971370;28;20468;-74
2021/11/14 13:24:00;;;;;;;28.63;16.57;;;10.50;99.90;;;;;;4971858;28;21015;-71
2021/11/14 13:26:32;;;;;;;26.80;15.63;;;10.50;99.90;;;;;;4980314;28;20827;-71
2021/11/14 13:29:00;;;;;;;25.10;16.63;;;10.60;99.90;;;;;;4982760;28;20479;-72
2021/11/14 13:31:26;;;;;;;25.30;15.83;;;10.60;99.90;;;;;;4971427;28;20465;-72
2021/11/14 13:34:16;;;;;;;26.90;15.97;;;10.60;99.90;;;;;;4990857;28;20537;-73
2021/11/14 13:37:02;;;;;;;27.00;17.20;;;10.60;99.90;;;;;;4962348;28;20245;-73
2021/11/14 13:39:30;;;;;;;28.80;17.80;;;10.60;99.90;;;;;;4986204;28;20467;-72
2021/11/14 13:42:11;;;;;;;26.00;15.20;;;10.60;99.90;;;;;;4981565;28;20483;-71
2021/11/14 13:44:44;;;;;;;23.67;16.57;;;10.60;99.90;;;;;;4987509;28;20529;-73
2021/11/14 13:47:16;;;;;;;29.67;15.90;;;10.60;99.90;;;;;;4986210;28;20535;-73
2021/11/14 13:49:45;;;;;;;30.17;17.83;;;10.60;99.90;;;;;;4985583;28;20565;-73
2021/11/14 13:52:14;;;;;;;26.30;17.23;;;10.60;99.90;;;;;;4964556;28;20466;-74
2021/11/14 13:54:51;;;;;;;23.33;14.93;;;10.70;99.90;;;;;;4974644;28;20563;-73
2021/11/14 13:57:22;;;;;;;23.73;16.17;;;10.70;99.90;;;;;;4984685;28;20509;-73
2021/11/14 13:59:48;;;;;;;24.10;16.23;;;10.80;99.90;;;;;;4991366;28;20468;-74
2021/11/14 14:02:15;;;;;;;23.70;16.13;;;10.80;99.90;;;;;;4969703;28;20999;-74
2021/11/14 14:05:02;;;;;;;27.17;15.20;;;10.80;99.90;;;;;;4989485;28;20871;-73
2021/11/14 14:07:31;;;;;;;24.13;17.53;;;10.70;99.90;;;;;;4980826;28;20536;-73
2021/11/14 14:10:04;;;;;;;25.83;14.83;;;10.70;99.90;;;;;;4981833;28;21016;-73
2021/11/14 14:12:30;;;;;;;22.30;14.37;;;10.70;99.90;;;;;;4972987;28;21101;-73
2021/11/14 14:14:58;;;;;;;23.20;14.73;;;10.60;99.90;;;;;;4974352;28;20501;-73
2021/11/14 14:17:26;;;;;;;23.27;15.47;;;10.60;99.90;;;;;;4973054;28;20461;-74
2021/11/14 14:19:54;;;;;;;20.30;14.27;;;10.60;99.90;;;;;;4985825;28;20459;-74
2021/11/14 14:22:19;;;;;;;22.50;13.90;;;10.70;99.90;;;;;;4985058;28;20480;-74
2021/11/14 14:24:51;;;;;;;20.83;14.03;;;10.60;99.90;;;;;;4975657;28;20453;-74
2021/11/14 14:27:22;;;;;;;21.10;13.13;;;10.50;99.90;;;;;;4979920;28;20237;-73
2021/11/14 14:29:59;;;;;;;19.67;13.97;;;10.60;99.90;;;;;;4982291;28;20486;-72
2021/11/14 14:32:26;;;;;;;18.97;13.57;;;10.50;99.90;;;;;;4991609;28;20464;-71
2021/11/14 14:35:06;;;;;;;25.67;16.10;;;10.50;99.90;;;;;;4979293;28;20815;-74
2021/11/14 14:37:51;;;;;;;18.60;12.60;;;10.60;99.90;;;;;;4973154;28;20472;-74
2021/11/14 14:40:39;;;;;;;22.50;13.43;;;10.50;99.90;;;;;;4978344;28;20861;-73
2021/11/14 14:43:10;;;;;;;21.17;12.80;;;10.50;99.90;;;;;;4992150;28;20472;-71
2021/11/14 14:45:36;;;;;;;18.77;12.50;;;10.50;99.90;;;;;;4972675;28;20938;-73
2021/11/14 14:48:05;;;;;;;19.67;13.13;;;10.50;99.90;;;;;;4982982;28;20535;-72
2021/11/14 14:50:33;;;;;;;26.13;13.23;;;10.50;99.90;;;;;;4985164;28;20807;-73
2021/11/14 14:52:59;;;;;;;19.93;13.53;;;10.50;99.90;;;;;;4981886;28;20883;-73
2021/11/14 14:55:25;;;;;;;19.03;13.20;;;10.60;99.90;;;;;;4993759;28;20444;-71
2021/11/14 14:57:51;;;;;;;20.23;13.27;;;10.60;99.90;;;;;;4993161;28;20516;-73
2021/11/14 15:00:29;;;;;;;22.07;13.33;;;10.50;99.90;;;;;;4993924;28;20447;-73
2021/11/14 15:02:57;;;;;;;23.57;14.33;;;10.50;99.90;;;;;;4993010;28;20958;-72
2021/11/14 15:05:23;;;;;;;22.53;14.37;;;10.50;99.90;;;;;;4993481;28;20528;-72
2021/11/14 15:07:59;;;;;;;22.30;13.67;;;10.40;99.90;;;;;;4992984;28;20539;-73
2021/11/14 15:10:29;;;;;;;19.47;11.53;;;10.50;99.90;;;;;;4993400;28;20464;-73
2021/11/14 15:12:58;;;;;;;18.27;12.10;;;10.40;99.90;;;;;;4992891;28;20452;-74
2021/11/14 15:15:24;;;;;;;17.77;11.90;;;10.40;99.90;;;;;;4993096;28;20845;-73
2021/11/14 15:17:59;;;;;;;17.67;11.90;;;10.40;99.90;;;;;;4986007;28;20503;-72
2021/11/14 15:20:28;;;;;;;19.93;11.53;;;10.30;99.90;;;;;;4988718;28;20820;-71
2021/11/14 15:23:02;;;;;;;22.70;13.80;;;10.30;99.90;;;;;;4981330;28;20836;-73
2021/11/14 15:25:32;;;;;;;19.37;13.17;;;10.30;99.90;;;;;;4992226;28;20468;-72
2021/11/14 15:28:11;;;;;;;21.20;11.97;;;10.30;99.90;;;;;;4980749;28;21018;-73
2021/11/14 15:30:38;;;;;;;15.63;11.07;;;10.30;99.90;;;;;;4989561;28;20449;-72
2021/11/14 15:33:04;;;;;;;17.47;11.03;;;10.30;99.90;;;;;;4983358;28;20516;-73
2021/11/14 15:35:30;;;;;;;19.73;12.33;;;10.30;99.90;;;;;;4991990;28;20449;-73
2021/11/14 15:37:56;;;;;;;18.23;12.10;;;10.30;99.90;;;;;;4992420;28;20465;-72
2021/11/14 15:40:23;;;;;;;18.87;11.50;;;10.30;99.90;;;;;;4974361;28;20480;-73
2021/11/14 15:42:50;;;;;;;15.90;11.87;;;10.20;99.90;;;;;;4968981;28;20231;-73
2021/11/14 15:45:18;;;;;;;18.07;10.63;;;10.30;99.90;;;;;;4971853;28;20465;-74
2021/11/14 15:47:44;;;;;;;16.20;11.80;;;10.20;99.90;;;;;;4974615;28;20478;-73
2021/11/14 15:50:12;;;;;;;14.97;11.23;;;10.20;99.90;;;;;;4992450;28;20477;-72
2021/11/14 15:52:42;;;;;;;16.70;11.03;;;10.20;99.90;;;;;;4986215;28;20477;-73
2021/11/14 15:55:14;;;;;;;16.40;11.50;;;10.30;99.90;;;;;;4985011;28;20460;-73
2021/11/14 15:57:40;;;;;;;15.00;10.53;;;10.20;99.90;;;;;;4982418;28;20475;-74
2021/11/14 16:00:07;;;;;;;17.33;11.23;;;10.20;99.90;;;;;;5002637;28;20881;-71
2021/11/14 16:02:32;;;;;;;15.27;10.53;;;10.20;99.90;;;;;;4963927;28;20477;-75
2021/11/14 16:04:58;;;;;;;15.20;10.30;;;10.20;99.90;;;;;;4973718;28;20468;-73
2021/11/14 16:07:23;;;;;;;20.13;12.77;;;10.20;99.90;;;;;;4980693;28;20322;-74
2021/11/14 16:09:49;;;;;;;24.20;15.77;;;10.20;99.90;;;;;;4970913;28;20233;-74
2021/11/14 16:12:16;;;;;;;20.83;12.17;;;10.20;99.90;;;;;;4970397;28;20255;-74
2021/11/14 16:14:41;;;;;;;18.80;10.53;;;10.10;99.90;;;;;;4979558;28;20204;-74
2021/11/14 16:17:07;;;;;;;16.33;11.03;;;10.10;99.90;;;;;;4990098;28;20570;-75
2021/11/14 16:19:33;;;;;;;16.60;11.43;;;10.10;99.90;;;;;;4990428;28;20226;-75
2021/11/14 16:21:58;;;;;;;16.80;10.60;;;10.00;99.90;;;;;;4989669;28;20226;-74
2021/11/14 16:24:24;;;;;;;15.80;10.40;;;10.00;99.90;;;;;;4967759;28;20224;-75
2021/11/14 16:26:50;;;;;;;19.53;11.20;;;10.00;99.90;;;;;;4989187;28;20579;-74
2021/11/14 16:29:20;;;;;;;13.57;10.10;;;10.00;99.90;;;;;;4990210;28;20691;-74
2021/11/14 16:31:45;;;;;;;20.30;11.10;;;9.90;99.90;;;;;;4989906;28;20459;-72
2021/11/14 16:34:11;;;;;;;17.67;12.30;;;9.90;99.90;;;;;;4983828;28;20482;-75
2021/11/14 16:36:36;;;;;;;15.87;10.27;;;9.90;99.90;;;;;;4981145;28;20221;-74
2021/11/14 16:39:03;;;;;;;15.67;11.23;;;9.90;99.90;;;;;;4978070;28;20313;-75
2021/11/14 16:41:29;;;;;;;15.27;11.57;;;9.90;99.90;;;;;;4989855;28;20309;-75
2021/11/14 16:43:54;;;;;;;17.27;10.90;;;9.80;99.90;;;;;;4989039;28;20564;-74
2021/11/14 16:46:24;;;;;;;16.63;11.30;;;9.90;99.90;;;;;;4966301;28;20652;-74
2021/11/14 16:48:51;;;;;;;15.70;11.67;;;9.80;99.90;;;;;;4990371;28;20742;-74
2021/11/14 16:51:16;;;;;;;17.87;11.50;;;9.80;99.90;;;;;;4990122;28;20447;-73
2021/11/14 16:53:42;;;;;;;20.73;11.90;;;9.80;99.90;;;;;;4976553;28;20480;-75
2021/11/14 16:56:07;;;;;;;13.27;9.63;;;9.80;99.90;;;;;;4970955;28;20218;-75
2021/11/14 16:58:35;;;;;;;17.20;11.80;;;9.80;99.90;;;;;;4982685;28;20310;-74
2021/11/14 17:01:01;;;;;;;17.30;10.80;;;9.80;99.90;;;;;;4970599;28;20651;-75
2021/11/14 17:03:30;;;;;;;18.00;10.83;;;9.70;99.90;;;;;;4984711;28;20561;-74
2021/11/14 17:05:57;;;;;;;14.47;10.97;;;9.70;99.90;;;;;;4979057;28;20824;-74
2021/11/14 17:08:23;;;;;;;12.57;10.50;;;9.70;99.90;;;;;;4962632;28;20483;-73
2021/11/14 17:10:50;;;;;;;14.60;11.07;;;9.80;99.90;;;;;;4989850;28;20582;-74
2021/11/14 17:13:15;;;;;;;13.63;10.53;;;9.70;99.90;;;;;;4965539;28;20503;-75
2021/11/14 17:15:44;;;;;;;16.13;9.97;;;9.70;99.90;;;;;;4978040;28;20861;-72
2021/11/14 17:18:10;;;;;;;16.57;9.20;;;9.70;99.90;;;;;;4977362;28;20226;-73